Glenola, North Carolina
Current Conditions -  °F | °C
As of 3:54 AM on Wednesday 26 Nov 2014 (Local Time) from KINT Reporting Station
Moderate Rain Moderate Rain  
Wind Chill: 37°   Ceiling: 4200
Heat Index: 43°   Visibility: 5mi
Dew Point: 40°   Wind: 12mph
Humidity: 89%   Direction: 10°N
Pressure: 30.02"   Gusts: NA
Location:  35.9808°N, 80.1272°W
Report Text: KINT 260854Z 01010KT 5SM RA BR FEW033 BKN042 OVC050 06/04 A3002 RMK AO2 PRESRR SLP163 P0008 60017 T00610044 53008
Loading
Personal Weather Stations






























Interactive Weather Map New forecast layout! Learn more

10-Day Weather Forecast

Advertisements
Track Severe Weather on mobile